Time;durP1;ratioP1;P1;durP2;ratioP2;P2;SDS_P1;SDS_P2;PMS_P1;PMS_P2;Temp;Humidity;BMP_temperature;BMP_pressure;BME280_temperature;BME280_humidity;BME280_pressure;Samples;Min_cycle;Max_cycle;Signal;HPM_P1;HPM_P2
2023/10/12 00:00:33;;;;;;;;;7.00;7.00;;;;;25.67;86.42;100859.50;2114048;27;46787;-57
2023/10/12 00:01:34;;;;;;;;;6.25;6.00;;;;;25.67;86.39;100859.50;2111584;27;46626;-56
2023/10/12 00:02:34;;;;;;;;;9.67;9.00;;;;;25.66;85.96;100862.31;2114026;27;46174;-58
2023/10/12 00:03:34;;;;;;;;;6.50;6.00;;;;;25.67;86.35;100858.66;2085604;28;46477;-55
2023/10/12 00:05:57;;;;;;;;;6.00;5.75;;;;;25.60;87.20;100851.97;2059286;28;45604;-58
2023/10/12 00:06:58;;;;;;;;;9.33;9.33;;;;;25.59;86.86;100855.69;2046684;28;46603;-57
2023/10/12 00:08:01;;;;;;;;;8.00;8.00;;;;;25.58;87.36;100852.09;2049920;28;46638;-55
2023/10/12 00:09:09;;;;;;;;;9.25;6.75;;;;;25.58;87.42;100852.09;2058033;28;46719;-57
2023/10/12 00:11:20;;;;;;;;;7.00;7.00;;;;;25.58;87.04;100849.38;2065755;28;46355;-53
2023/10/12 00:12:24;;;;;;;;;8.00;6.75;;;;;25.58;87.54;100845.81;2062467;28;47869;-57
2023/10/12 00:13:28;;;;;;;;;8.75;7.00;;;;;25.59;87.64;100847.53;2061849;28;46674;-54
2023/10/12 00:14:32;;;;;;;;;7.50;7.25;;;;;25.57;87.23;100861.25;2063024;28;46475;-57
2023/10/12 00:15:38;;;;;;;;;5.75;5.75;;;;;25.56;87.15;100850.50;2061279;28;46205;-56
2023/10/12 00:16:42;;;;;;;;;8.20;8.20;;;;;25.57;87.53;100852.25;2063359;28;46449;-55
2023/10/12 00:17:43;;;;;;;;;8.00;5.50;;;;;25.57;87.61;100858.53;2060847;28;46838;-56
2023/10/12 00:18:45;;;;;;;;;7.75;7.75;;;;;25.57;88.16;100849.53;2062727;28;46432;-57
2023/10/12 00:19:46;;;;;;;;;6.75;6.75;;;;;25.57;87.78;100850.38;2059919;28;46643;-56
2023/10/12 00:20:52;;;;;;;;;4.00;4.00;;;;;25.57;88.19;100847.66;2062990;28;46567;-57
2023/10/12 00:22:09;;;;;;;;;7.25;7.25;;;;;25.58;88.18;100848.53;2062127;28;46818;-57
2023/10/12 00:23:09;;;;;;;;;7.25;5.00;;;;;25.57;88.35;100844.94;2058287;28;46131;-57
2023/10/12 00:24:15;;;;;;;;;7.33;6.00;;;;;25.57;87.86;100841.38;2061317;28;46260;-57
2023/10/12 00:25:16;;;;;;;;;7.50;6.75;;;;;25.57;88.27;100844.09;2062374;28;46852;-54
2023/10/12 00:26:17;;;;;;;;;8.00;8.00;;;;;25.57;88.58;100841.38;2061426;28;46744;-54
2023/10/12 00:27:20;;;;;;;;;6.50;5.75;;;;;25.56;88.05;100832.34;2064206;28;46758;-54
2023/10/12 00:28:22;;;;;;;;;9.80;6.60;;;;;25.56;88.28;100843.22;2037666;28;46506;-56
2023/10/12 00:29:23;;;;;;;;;7.00;7.00;;;;;25.56;88.71;100836.94;2038910;28;46382;-57
2023/10/12 00:30:23;;;;;;;;;10.00;10.00;;;;;25.57;88.14;100827.78;2062816;28;46370;-53
2023/10/12 00:31:25;;;;;;;;;9.00;9.00;;;;;25.56;88.28;100835.06;2053508;28;46690;-57
2023/10/12 00:32:26;;;;;;;;;9.20;7.60;;;;;25.57;88.85;100830.50;2047312;28;46811;-57
2023/10/12 00:33:26;;;;;;;;;9.00;9.00;;;;;25.57;88.80;100838.66;2056124;28;46390;-57
2023/10/12 00:34:27;;;;;;;;;10.75;9.50;;;;;25.56;88.47;100828.78;2038941;28;46704;-57
2023/10/12 00:35:28;;;;;;;;;7.40;7.40;;;;;25.55;88.91;100827.91;2028693;28;46420;-55
2023/10/12 00:36:28;;;;;;;;;11.00;6.75;;;;;25.55;89.28;100825.19;2054826;28;46563;-58
2023/10/12 00:37:32;;;;;;;;;8.67;8.33;;;;;25.55;89.27;100830.63;2061179;28;46335;-55
2023/10/12 00:38:32;;;;;;;;;8.40;8.40;;;;;25.56;89.19;100835.06;2061254;28;46091;-56
2023/10/12 00:39:58;;;;;;;;;6.00;6.00;;;;;25.55;88.98;100832.47;2059630;28;46799;-58
2023/10/12 00:41:03;;;;;;;;;11.40;9.00;;;;;25.55;89.14;100825.19;2063366;28;46418;-57
2023/10/12 00:42:03;;;;;;;;;6.40;5.40;;;;;25.53;89.35;100832.59;2059531;28;46631;-57
2023/10/12 00:43:04;;;;;;;;;7.75;7.75;;;;;25.53;89.06;100836.16;2060294;28;46492;-57
2023/10/12 00:45:14;;;;;;;;;7.00;7.00;;;;;25.49;89.93;100837.41;2109548;27;46390;-57
2023/10/12 00:47:30;;;;;;;;;7.40;7.40;;;;;25.50;89.53;100841.84;2107459;27;46951;-55
2023/10/12 00:48:38;;;;;;;;;12.40;8.00;;;;;25.51;89.69;100840.00;2105020;27;46666;-58
2023/10/12 00:49:41;;;;;;;;;8.40;8.00;;;;;25.51;89.76;100840.00;2104548;27;46558;-55
2023/10/12 00:50:44;;;;;;;;;8.00;7.20;;;;;25.50;89.81;100841.00;2114258;27;46485;-56
2023/10/12 00:51:51;;;;;;;;;8.00;8.00;;;;;25.50;89.93;100839.13;2107753;27;46624;-57
2023/10/12 00:52:58;;;;;;;;;7.60;7.60;;;;;25.49;89.78;100837.41;2109506;27;46893;-56
2023/10/12 00:53:58;;;;;;;;;6.40;6.40;;;;;25.49;90.43;100840.13;2112162;27;46980;-56
2023/10/12 00:55:14;;;;;;;;;8.00;6.75;;;;;25.49;90.58;100834.69;2113752;27;46332;-56
2023/10/12 00:56:14;;;;;;;;;10.60;8.60;;;;;25.49;90.43;100834.69;2111967;27;46869;-56
2023/10/12 00:57:16;;;;;;;;;6.00;6.00;;;;;25.48;90.43;100832.09;2113265;27;46211;-53
2023/10/12 00:58:17;;;;;;;;;7.40;7.00;;;;;25.48;90.80;100834.81;2112639;27;46524;-55
2023/10/12 00:59:21;;;;;;;;;9.00;7.40;;;;;25.47;90.35;100831.25;2111250;27;46458;-54
2023/10/12 01:00:21;;;;;;;;;8.40;8.40;;;;;25.48;90.83;100832.09;2106315;27;46452;-57
2023/10/12 01:01:23;;;;;;;;;11.00;9.00;;;;;25.47;90.42;100839.41;2105693;27;46839;-55
2023/10/12 01:02:31;;;;;;;;;10.80;7.00;;;;;25.46;90.67;100832.25;2113819;27;46465;-54
2023/10/12 01:03:35;;;;;;;;;8.00;8.00;;;;;25.46;91.04;100834.09;2110926;27;46507;-55
2023/10/12 01:04:36;;;;;;;;;8.00;8.00;;;;;25.46;91.42;100825.94;2104618;28;46494;-57
2023/10/12 01:05:37;;;;;;;;;8.00;8.00;;;;;25.44;90.78;100819.78;2103881;27;46543;-55
2023/10/12 01:06:38;;;;;;;;;5.25;5.25;;;;;25.45;91.54;100816.06;2104898;28;46138;-56
2023/10/12 01:07:39;;;;;;;;;7.80;7.80;;;;;25.45;90.86;100813.34;2093473;28;46436;-57
2023/10/12 01:08:46;;;;;;;;;6.50;6.50;;;;;25.46;90.91;100804.22;2105297;28;45276;-55
2023/10/12 01:09:54;;;;;;;;;9.00;7.40;;;;;25.46;91.10;100804.22;2111220;27;46873;-57
2023/10/12 01:10:57;;;;;;;;;40.80;35.60;;;;;25.47;91.73;100801.34;2113872;27;46522;-52
2023/10/12 01:11:59;;;;;;;;;44.00;35.20;;;;;25.46;91.96;100805.06;2111557;27;46495;-55
2023/10/12 01:13:02;;;;;;;;;46.80;38.40;;;;;25.47;91.51;100805.94;2113827;27;46840;-56
2023/10/12 01:14:09;;;;;;;;;45.40;38.80;;;;;25.50;91.82;100797.53;2109837;27;46617;-55
2023/10/12 01:15:11;;;;;;;;;24.80;22.60;;;;;25.49;90.99;100802.09;2114579;27;46797;-55
2023/10/12 01:16:21;;;;;;;;;26.20;21.60;;;;;25.49;90.98;100799.38;2110778;27;47133;-55
2023/10/12 01:17:28;;;;;;;;;21.20;18.80;;;;;25.51;91.27;100796.53;2110827;27;46773;-56
2023/10/12 01:18:29;;;;;;;;;12.40;12.40;;;;;25.50;90.71;100795.66;2105300;28;46735;-55
2023/10/12 01:19:34;;;;;;;;;10.00;10.00;;;;;25.51;90.92;100796.53;2099791;28;45500;-56
2023/10/12 01:20:39;;;;;;;;;14.40;12.40;;;;;25.50;90.81;100798.38;2105643;27;45325;-55
2023/10/12 01:21:42;;;;;;;;;12.20;12.20;;;;;25.48;91.04;100796.78;2111218;27;47003;-58
2023/10/12 01:22:42;;;;;;;;;11.80;11.80;;;;;25.45;91.54;100799.75;2113939;27;47033;-57
2023/10/12 01:23:50;;;;;;;;;13.00;12.50;;;;;25.44;91.30;100796.19;2110865;27;46372;-53
2023/10/12 01:25:51;;;;;;;;;10.00;10.00;;;;;25.44;91.34;100806.19;2111859;27;46479;-57
2023/10/12 01:26:53;;;;;;;;;10.33;8.67;;;;;25.44;92.03;100820.63;2113847;27;45986;-57
2023/10/12 01:27:53;;;;;;;;;8.00;7.20;;;;;25.44;91.72;100814.34;2111349;27;46537;-55
2023/10/12 01:28:55;;;;;;;;;7.67;6.67;;;;;25.43;91.92;100799.91;2113759;27;46423;-56
2023/10/12 01:30:13;;;;;;;;;8.40;8.20;;;;;25.43;91.82;100799.91;2109726;27;46597;-57
2023/10/12 01:31:13;;;;;;;;;5.75;5.75;;;;;25.42;91.64;100800.88;2104851;28;46676;-58
2023/10/12 01:33:18;;;;;;;;;7.80;7.80;;;;;25.42;91.77;100802.75;2112411;27;46870;-55
2023/10/12 01:34:18;;;;;;;;;12.80;11.80;;;;;25.42;91.72;100802.75;2115299;27;45879;-57
2023/10/12 01:35:26;;;;;;;;;9.75;9.75;;;;;25.42;91.49;100806.31;2118364;27;46547;-56
2023/10/12 01:36:30;;;;;;;;;7.60;6.60;;;;;25.42;91.88;100805.47;2104896;28;46459;-58
2023/10/12 01:37:41;;;;;;;;;7.50;6.75;;;;;25.41;91.74;100815.47;2110499;27;46330;-55
2023/10/12 01:38:43;;;;;;;;;10.25;10.00;;;;;25.39;91.92;100811.97;2113554;27;46925;-55
2023/10/12 01:39:54;;;;;;;;;7.50;7.50;;;;;25.39;92.06;100809.25;2110921;27;46327;-56
2023/10/12 01:40:55;;;;;;;;;10.00;8.50;;;;;25.38;91.88;100806.69;2113840;27;46273;-55
2023/10/12 01:41:56;;;;;;;;;6.33;6.33;;;;;25.37;92.14;100805.81;2112221;27;46573;-54
2023/10/12 01:42:57;;;;;;;;;9.40;7.60;;;;;25.37;91.93;100808.53;2113312;27;46718;-54
2023/10/12 01:43:57;;;;;;;;;8.67;8.00;;;;;25.36;91.72;100812.25;2111784;27;45678;-56
2023/10/12 01:44:58;;;;;;;;;7.33;7.33;;;;;25.37;91.65;100822.13;2095301;28;46008;-55
2023/10/12 01:46:03;;;;;;;;;7.50;7.50;;;;;25.37;91.60;100819.41;2093884;27;46931;-58
2023/10/12 01:47:04;;;;;;;;;8.00;7.75;;;;;25.35;91.52;100815.94;2111556;27;46475;-58
2023/10/12 01:48:22;;;;;;;;;9.25;7.50;;;;;25.34;92.03;100816.94;2110972;27;45810;-56
2023/10/12 01:49:22;;;;;;;;;8.00;8.00;;;;;25.36;91.58;100814.09;2104140;27;47061;-58
2023/10/12 01:50:27;;;;;;;;;8.00;8.00;;;;;25.37;91.42;100813.09;2113622;27;46914;-55
2023/10/12 01:51:29;;;;;;;;;7.50;7.00;;;;;25.36;91.93;100811.38;2111368;27;46034;-52
2023/10/12 01:52:29;;;;;;;;;7.50;7.50;;;;;25.34;91.80;100806.06;2113618;27;46749;-58
2023/10/12 01:53:32;;;;;;;;;8.00;8.00;;;;;25.34;91.73;100808.78;2110640;27;46679;-54
2023/10/12 01:54:32;;;;;;;;;10.50;7.00;;;;;25.32;91.53;100816.22;2114035;27;45906;-55
2023/10/12 01:55:32;;;;;;;;;7.00;7.00;;;;;25.33;91.56;100814.34;2111276;27;46177;-56
2023/10/12 01:56:33;;;;;;;;;11.67;9.00;;;;;25.32;91.78;100818.06;2104854;28;46196;-58
2023/10/12 01:57:41;;;;;;;;;10.50;8.50;;;;;25.30;92.01;100815.47;2102307;27;46890;-57
2023/10/12 01:58:48;;;;;;;;;9.25;8.50;;;;;25.29;91.74;100811.03;2113390;27;46958;-57
2023/10/12 01:59:49;;;;;;;;;10.00;8.75;;;;;25.28;91.92;100812.00;2110837;27;46572;-57
2023/10/12 02:00:52;;;;;;;;;10.67;10.00;;;;;25.28;92.48;100814.72;2113207;27;46238;-56
2023/10/12 02:02:07;;;;;;;;;7.25;7.25;;;;;25.23;92.75;100819.66;2109983;27;46618;-56
2023/10/12 02:03:20;;;;;;;;;6.50;6.50;;;;;25.20;92.85;100822.66;2113086;27;46100;-56
2023/10/12 02:04:25;;;;;;;;;7.75;7.75;;;;;25.19;92.78;100820.91;2110196;27;46055;-56
2023/10/12 02:05:26;;;;;;;;;8.50;8.50;;;;;25.17;93.04;100817.47;2105116;27;46634;-58
2023/10/12 02:06:30;;;;;;;;;7.00;7.00;;;;;25.16;93.20;100818.47;2102477;28;46368;-55
2023/10/12 02:07:30;;;;;;;;;9.00;8.00;;;;;25.15;93.18;100805.84;2103181;27;46640;-58
2023/10/12 02:08:34;;;;;;;;;10.67;8.33;;;;;25.15;93.26;100808.56;2121910;27;46738;-55
2023/10/12 02:09:34;;;;;;;;;9.25;7.00;;;;;25.16;93.10;100810.31;2115126;27;46668;-55
2023/10/12 02:10:54;;;;;;;;;11.00;11.00;;;;;25.16;93.41;100813.88;2113218;27;46597;-55
2023/10/12 02:11:55;;;;;;;;;4.50;4.25;;;;;25.16;92.96;100821.19;2108462;27;46463;-57
2023/10/12 02:12:55;;;;;;;;;10.75;9.50;;;;;25.14;92.91;100817.69;2108728;27;46397;-56
2023/10/12 02:13:55;;;;;;;;;8.67;8.67;;;;;25.13;93.52;100821.41;2108740;27;46734;-57
2023/10/12 02:14:56;;;;;;;;;12.00;10.33;;;;;25.12;93.18;100817.81;2112588;27;46673;-56
2023/10/12 02:15:59;;;;;;;;;8.33;7.67;;;;;25.13;93.30;100824.13;2101923;27;46519;-57
2023/10/12 02:17:02;;;;;;;;;11.25;10.75;;;;;25.12;93.14;100820.53;2105122;27;46711;-58
2023/10/12 02:18:10;;;;;;;;;6.60;6.60;;;;;25.12;93.42;100822.38;2110850;27;46926;-55
2023/10/12 02:19:19;;;;;;;;;8.25;8.25;;;;;25.12;93.67;100814.25;2113006;27;46453;-55
2023/10/12 02:20:19;;;;;;;;;7.25;6.00;;;;;25.12;93.56;100806.09;2111457;27;46866;-53
2023/10/12 02:21:25;;;;;;;;;9.25;9.00;;;;;25.12;93.33;100804.25;2111499;27;46200;-54
2023/10/12 02:22:28;;;;;;;;;9.25;9.25;;;;;25.12;93.23;100817.81;2113261;27;46918;-53
2023/10/12 02:23:39;;;;;;;;;6.25;6.25;;;;;25.11;93.99;100812.50;2110933;27;46370;-54
2023/10/12 02:24:42;;;;;;;;;7.50;7.50;;;;;25.10;93.71;100817.09;2113600;27;46371;-56
2023/10/12 02:25:50;;;;;;;;;10.25;8.75;;;;;25.11;94.15;100816.09;2110785;27;46536;-56
2023/10/12 02:27:54;;;;;;;;;10.67;9.00;;;;;25.08;93.59;100813.63;2110334;27;46639;-55
2023/10/12 02:30:14;;;;;;;;;9.25;9.25;;;;;25.07;94.04;100820.06;2105367;27;46330;-56
2023/10/12 02:31:14;;;;;;;;;9.75;8.50;;;;;25.07;93.75;100816.47;2112131;27;46384;-54
2023/10/12 02:32:17;;;;;;;;;7.33;7.00;;;;;25.06;93.92;100818.34;2111828;27;47099;-57
2023/10/12 02:33:23;;;;;;;;;8.00;7.20;;;;;25.06;93.78;100817.47;2111835;27;46697;-56
2023/10/12 02:34:26;;;;;;;;;9.00;8.25;;;;;25.06;93.95;100820.19;2116585;27;46450;-56
2023/10/12 02:35:36;;;;;;;;;7.00;7.00;;;;;25.07;93.70;100821.91;2116077;27;46530;-57
2023/10/12 02:36:37;;;;;;;;;8.40;8.40;;;;;25.06;94.46;100818.34;2104276;27;46367;-55
2023/10/12 02:37:37;;;;;;;;;8.00;8.00;;;;;25.07;93.75;100827.34;2105682;27;46918;-57
2023/10/12 02:38:37;;;;;;;;;5.00;5.00;;;;;25.07;93.84;100830.06;2113562;27;46210;-55
2023/10/12 02:39:41;;;;;;;;;10.00;10.00;;;;;25.06;94.23;100825.63;2110559;27;46693;-57
2023/10/12 02:40:44;;;;;;;;;6.00;6.00;;;;;25.06;94.39;100833.75;2113399;27;46069;-57
2023/10/12 02:41:51;;;;;;;;;7.75;6.50;;;;;25.09;93.92;100830.78;2110757;27;47054;-55
2023/10/12 02:42:51;;;;;;;;;9.00;8.50;;;;;25.13;94.14;100829.53;2113495;27;46395;-58
2023/10/12 02:44:11;;;;;;;;;8.33;8.33;;;;;25.14;93.95;100825.84;2110224;27;46290;-55
2023/10/12 02:46:22;;;;;;;;;8.25;8.25;;;;;25.16;93.72;100838.34;2111361;27;47026;-55
2023/10/12 02:47:33;;;;;;;;;7.00;7.00;;;;;25.14;93.67;100842.13;2111186;27;46798;-55
2023/10/12 02:48:36;;;;;;;;;6.00;6.00;;;;;25.08;93.91;100848.94;2109669;27;46781;-55
2023/10/12 02:49:39;;;;;;;;;5.75;5.75;;;;;25.12;94.09;100842.25;2110605;27;46806;-57
2023/10/12 02:50:58;;;;;;;;;11.50;11.00;;;;;25.14;93.83;100845.72;2113803;27;46595;-58
2023/10/12 02:52:05;;;;;;;;;7.00;7.00;;;;;25.11;93.56;100828.81;2110746;27;46314;-56
2023/10/12 02:53:10;;;;;;;;;9.00;7.00;;;;;25.08;94.40;100823.63;2111690;27;45868;-57
2023/10/12 02:54:14;;;;;;;;;6.50;6.50;;;;;25.06;94.70;100812.91;2110135;27;46637;-56
2023/10/12 02:55:24;;;;;;;;;8.25;6.75;;;;;25.07;94.57;100808.34;2111729;27;46788;-56
2023/10/12 02:56:24;;;;;;;;;9.75;8.00;;;;;25.06;94.17;100796.59;2113188;27;46669;-56
2023/10/12 02:57:25;;;;;;;;;6.67;6.67;;;;;25.07;94.73;100794.75;2110604;27;46599;-55
2023/10/12 02:58:27;;;;;;;;;9.00;9.00;;;;;25.03;94.45;100801.41;2113026;27;47027;-56
2023/10/12 02:59:27;;;;;;;;;7.00;7.00;;;;;25.06;94.91;100806.59;2111099;27;46678;-57
2023/10/12 03:00:34;;;;;;;;;5.33;5.00;;;;;25.06;94.79;100809.31;2104380;28;46453;-56
2023/10/12 03:01:38;;;;;;;;;6.25;6.25;;;;;25.05;94.81;100804.88;2103128;27;46130;-57
2023/10/12 03:02:41;;;;;;;;;6.75;6.75;;;;;25.05;94.64;100802.16;2104064;28;46603;-55
2023/10/12 03:03:48;;;;;;;;;7.00;6.25;;;;;25.06;95.00;100803.91;2102032;27;46846;-57
2023/10/12 03:04:48;;;;;;;;;6.50;6.25;;;;;25.06;94.95;100803.91;2113120;27;46418;-56
2023/10/12 03:05:51;;;;;;;;;8.67;7.33;;;;;25.06;95.13;100804.75;2110201;27;46812;-56
2023/10/12 03:07:00;;;;;;;;;7.25;7.00;;;;;25.05;94.79;100811.19;2113756;27;46524;-57
2023/10/12 03:08:06;;;;;;;;;9.50;9.00;;;;;25.05;95.29;100813.03;2109279;27;46787;-54
2023/10/12 03:10:26;;;;;;;;;8.00;7.00;;;;;25.05;95.31;100813.03;2111298;27;46420;-56
2023/10/12 03:11:28;;;;;;;;;9.75;7.25;;;;;24.97;95.21;100807.31;2111787;27;46699;-57
2023/10/12 03:12:34;;;;;;;;;8.00;8.00;;;;;24.94;95.93;100812.00;2112749;27;46384;-56
2023/10/12 03:13:38;;;;;;;;;7.00;6.50;;;;;24.95;95.66;100813.72;2109052;27;46939;-55
2023/10/12 03:14:40;;;;;;;;;8.50;6.00;;;;;24.92;95.92;100813.13;2104017;27;46740;-57
2023/10/12 03:15:59;;;;;;;;;8.00;8.00;;;;;24.93;96.04;100817.56;2101452;28;46384;-58
2023/10/12 03:17:06;;;;;;;;;8.00;8.00;;;;;24.92;96.25;100800.41;2103427;27;45317;-58
2023/10/12 03:18:11;;;;;;;;;5.50;5.50;;;;;24.93;96.24;100803.97;2101513;28;46751;-56
2023/10/12 03:19:18;;;;;;;;;7.75;7.75;;;;;24.91;95.96;100808.69;2103678;28;46930;-56
2023/10/12 03:20:22;;;;;;;;;7.25;7.25;;;;;24.91;96.63;100798.69;2102360;28;47141;-57
2023/10/12 03:21:23;;;;;;;;;6.00;6.00;;;;;24.85;96.48;100806.44;2101776;27;46430;-56
2023/10/12 03:22:34;;;;;;;;;8.50;8.50;;;;;24.84;96.80;100804.72;2103552;28;46853;-52
2023/10/12 03:23:34;;;;;;;;;8.00;7.00;;;;;24.84;97.07;100804.72;2096939;27;46599;-56
2023/10/12 03:24:43;;;;;;;;;8.00;8.00;;;;;24.82;97.23;100809.41;2102060;27;46568;-53
2023/10/12 03:25:46;;;;;;;;;6.80;6.80;;;;;24.88;96.77;100809.75;2101676;27;45951;-56
2023/10/12 03:26:56;;;;;;;;;8.40;6.80;;;;;24.90;96.91;100804.19;2103307;28;46720;-56
2023/10/12 03:27:56;;;;;;;;;9.00;7.80;;;;;24.91;97.05;100814.97;2102503;27;45066;-54
2023/10/12 03:29:18;;;;;;;;;6.00;6.00;;;;;24.91;96.73;100814.09;2103631;28;46231;-56
2023/10/12 03:30:24;;;;;;;;;8.60;7.80;;;;;24.92;96.96;100818.53;2094047;28;46446;-55
2023/10/12 03:31:26;;;;;;;;;6.60;6.60;;;;;24.92;96.70;100815.84;2093631;28;46467;-56
2023/10/12 03:32:26;;;;;;;;;9.60;8.60;;;;;24.91;96.78;100820.41;2097522;28;46650;-57
2023/10/12 03:33:35;;;;;;;;;7.00;5.50;;;;;24.91;96.91;100822.25;2100585;27;46008;-56
2023/10/12 03:35:44;;;;;;;;;7.33;6.00;;;;;24.92;96.88;100810.41;2106919;27;46817;-57
2023/10/12 03:36:47;;;;;;;;;6.50;6.50;;;;;24.92;97.29;100803.13;2103599;28;46736;-54
2023/10/12 03:37:52;;;;;;;;;8.00;7.00;;;;;24.92;97.27;100813.13;2102008;28;45834;-58
2023/10/12 03:40:50;;;;;;;;;9.50;9.00;;;;;24.92;97.67;100821.25;2101660;27;46723;-58
2023/10/12 03:41:54;;;;;;;;;7.50;6.00;;;;;24.92;97.20;100824.84;2102146;27;46216;-56
2023/10/12 03:42:55;;;;;;;;;7.25;6.75;;;;;24.92;97.14;100822.13;2104707;28;46604;-57
2023/10/12 03:44:05;;;;;;;;;8.25;8.25;;;;;24.92;97.26;100829.41;2103223;27;46904;-55
2023/10/12 03:45:23;;;;;;;;;6.00;6.00;;;;;24.91;97.58;100828.53;2100113;28;46546;-57
2023/10/12 03:46:28;;;;;;;;;9.50;7.25;;;;;24.90;97.81;100832.25;2109687;27;45669;-57
2023/10/12 03:47:29;;;;;;;;;8.00;8.00;;;;;24.89;97.96;100827.78;2114689;27;46564;-56
2023/10/12 03:49:02;;;;;;;;;5.25;3.50;;;;;24.89;97.78;100824.19;2113505;27;46818;-54
2023/10/12 03:50:07;;;;;;;;;7.50;7.50;;;;;24.90;98.15;100824.09;2109816;27;46642;-56
2023/10/12 03:51:38;;;;;;;;;6.00;5.50;;;;;24.91;97.79;100822.25;2114779;27;46325;-56
2023/10/12 03:52:35;;;;;;;;;10.25;10.25;;;;;24.91;98.07;100823.13;2119898;27;46642;-53
2023/10/12 03:53:45;;;;;;;;;6.00;6.00;;;;;24.97;98.26;100819.03;2108946;27;46415;-56
2023/10/12 03:55:16;;;;;;;;;8.80;8.00;;;;;24.98;97.55;100807.19;2099224;28;47103;-55
2023/10/12 03:56:16;;;;;;;;;7.75;7.75;;;;;24.92;98.19;100802.25;2110193;27;46529;-58
2023/10/12 03:57:27;;;;;;;;;7.33;6.00;;;;;24.91;97.94;100798.69;2104332;27;46403;-56
2023/10/12 03:58:28;;;;;;;;;7.25;7.25;;;;;24.91;97.87;100801.41;2104106;28;46922;-56
2023/10/12 03:59:37;;;;;;;;;11.00;8.00;;;;;24.92;98.30;100804.97;2109366;27;46381;-57
2023/10/12 04:00:47;;;;;;;;;7.00;7.00;;;;;24.91;98.37;100809.53;2114056;27;46564;-56
2023/10/12 04:01:49;;;;;;;;;9.25;9.25;;;;;24.92;98.55;100807.69;2111772;27;46963;-55
2023/10/12 04:04:08;;;;;;;;;8.50;7.75;;;;;24.91;98.46;100812.25;2111505;27;46465;-56
2023/10/12 04:05:16;;;;;;;;;6.00;6.00;;;;;24.91;98.60;100812.25;2114500;27;46306;-53
2023/10/12 04:06:23;;;;;;;;;12.80;8.60;;;;;24.92;98.70;100804.97;2098970;28;46697;-57
2023/10/12 04:07:37;;;;;;;;;8.80;8.20;;;;;24.91;98.31;100803.25;2103440;27;45935;-56
2023/10/12 04:08:39;;;;;;;;;7.40;7.40;;;;;24.90;98.53;100806.91;2114221;27;46169;-57
2023/10/12 04:09:51;;;;;;;;;7.40;7.40;;;;;24.89;98.43;100811.50;2111782;27;46658;-54
2023/10/12 04:12:36;;;;;;;;;8.80;8.40;;;;;24.88;98.95;100801.63;2086052;28;46403;-57
2023/10/12 04:13:55;;;;;;;;;7.80;6.20;;;;;24.88;99.37;100804.34;2086115;28;47132;-55
2023/10/12 04:14:56;;;;;;;;;8.75;7.00;;;;;24.89;99.62;100799.75;2079420;28;46393;-57
2023/10/12 04:18:19;;;;;;;;;9.25;9.25;;;;;24.88;99.16;100798.91;2087549;28;47002;-57
2023/10/12 04:19:29;;;;;;;;;7.00;4.33;;;;;24.87;99.46;100797.19;2078031;28;46290;-57
2023/10/12 04:20:32;;;;;;;;;8.25;5.75;;;;;24.87;99.57;100802.59;2077530;28;46771;-57
2023/10/12 04:21:56;;;;;;;;;6.00;6.00;;;;;24.87;99.60;100804.47;2086225;28;46667;-55
2023/10/12 04:23:15;;;;;;;;;7.00;7.00;;;;;24.87;99.81;100807.19;2087713;28;46353;-53
2023/10/12 04:26:38;;;;;;;;;11.00;10.75;;;;;24.87;99.93;100812.59;2087620;28;46547;-56
2023/10/12 04:27:39;;;;;;;;;9.50;9.50;;;;;24.85;99.79;100817.28;2090884;28;46778;-56
2023/10/12 04:28:51;;;;;;;;;10.00;9.00;;;;;24.86;99.80;100819.03;2087962;28;46519;-56
2023/10/12 04:29:57;;;;;;;;;8.50;8.50;;;;;24.86;99.59;100822.59;2086337;28;45846;-55
2023/10/12 04:32:09;;;;;;;;;9.67;8.00;;;;;24.86;99.81;100819.03;2085932;28;45544;-57
2023/10/12 04:34:10;;;;;;;;;7.33;6.33;;;;;24.84;100.00;100821.00;2086016;28;46960;-56
2023/10/12 04:35:20;;;;;;;;;8.00;8.00;;;;;24.82;100.00;100815.69;2091975;28;46764;-55
2023/10/12 04:37:44;;;;;;;;;8.75;8.75;;;;;24.82;100.00;100820.25;2068085;28;46952;-57
2023/10/12 04:39:56;;;;;;;;;8.00;8.00;;;;;24.81;100.00;100815.81;2055854;28;46260;-56
2023/10/12 04:42:23;;;;;;;;;9.25;8.25;;;;;24.83;100.00;100813.84;2060733;28;46701;-56
2023/10/12 04:43:24;;;;;;;;;6.25;5.75;;;;;24.81;100.00;100818.53;2057292;28;46937;-56
2023/10/12 04:45:27;;;;;;;;;9.00;8.50;;;;;24.84;100.00;100830.00;2061330;28;46697;-55
2023/10/12 04:46:28;;;;;;;;;8.80;7.60;;;;;24.85;100.00;100829.00;2063526;28;45070;-54
2023/10/12 04:47:30;;;;;;;;;8.00;8.00;;;;;24.81;100.00;100822.13;2060846;28;46690;-57
2023/10/12 04:48:31;;;;;;;;;8.00;7.50;;;;;24.79;100.00;100825.94;2061703;28;46229;-56
2023/10/12 04:50:43;;;;;;;;;12.00;10.60;;;;;24.76;100.00;100829.75;2079152;28;46394;-54
2023/10/12 04:51:59;;;;;;;;;13.60;12.00;;;;;24.76;100.00;100834.31;2077337;28;46518;-57
2023/10/12 04:53:09;;;;;;;;;12.20;12.20;;;;;24.76;100.00;100834.31;2072786;28;46246;-56
2023/10/12 04:54:25;;;;;;;;;27.00;25.60;;;;;24.79;100.00;100825.94;2076462;28;46758;-54
2023/10/12 04:55:28;;;;;;;;;36.60;31.20;;;;;24.82;100.00;100825.69;2076996;28;46840;-55
2023/10/12 04:56:30;;;;;;;;;15.20;15.20;;;;;24.82;100.00;100823.84;2061302;28;46896;-58
2023/10/12 04:57:32;;;;;;;;;16.20;15.80;;;;;24.81;100.00;100822.13;2061973;28;46924;-58
2023/10/12 04:58:35;;;;;;;;;17.40;17.20;;;;;24.83;100.00;100821.97;2078987;28;47019;-56
2023/10/12 05:00:48;;;;;;;;;12.60;10.40;;;;;24.81;100.00;100821.25;2073370;28;45873;-56
2023/10/12 05:02:22;;;;;;;;;7.75;7.75;;;;;24.82;100.00;100817.53;2073452;28;45890;-57
2023/10/12 05:03:35;;;;;;;;;8.60;8.60;;;;;24.83;100.00;100827.41;2077495;28;46731;-56
2023/10/12 05:05:55;;;;;;;;;11.25;9.00;;;;;24.81;100.00;100821.25;2076767;28;46385;-56
2023/10/12 05:08:14;;;;;;;;;7.60;7.20;;;;;24.81;100.00;100821.25;2076953;28;47283;-57
2023/10/12 05:09:18;;;;;;;;;10.75;9.00;;;;;24.80;100.00;100814.09;2079029;28;45724;-52
2023/10/12 05:10:26;;;;;;;;;8.20;8.20;;;;;24.82;100.00;100814.84;2070766;28;46580;-57
2023/10/12 05:11:28;;;;;;;;;9.40;7.60;;;;;24.82;100.00;100818.41;2071157;28;47348;-56
2023/10/12 05:12:28;;;;;;;;;11.00;10.00;;;;;24.82;100.00;100814.84;2079372;28;46578;-56
2023/10/12 05:13:28;;;;;;;;;9.33;7.67;;;;;24.82;100.00;100815.69;2076480;28;46258;-58
2023/10/12 05:14:33;;;;;;;;;8.00;8.00;;;;;24.82;100.00;100814.84;2071498;28;46880;-56
2023/10/12 05:15:54;;;;;;;;;11.60;9.20;;;;;24.81;100.00;100811.25;2088295;27;46224;-55
2023/10/12 05:16:55;;;;;;;;;10.20;10.20;;;;;24.81;100.00;100822.13;2116683;27;46489;-57
2023/10/12 05:17:55;;;;;;;;;8.25;8.25;;;;;24.80;100.00;100822.25;2108990;27;46656;-57
2023/10/12 05:18:55;;;;;;;;;9.00;9.00;;;;;24.79;100.00;100818.66;2113520;27;46360;-56
2023/10/12 05:19:56;;;;;;;;;9.50;8.00;;;;;24.79;100.00;100818.66;2111605;27;45676;-54
2023/10/12 05:20:56;;;;;;;;;8.75;8.00;;;;;24.80;100.00;100816.81;2113996;27;46311;-57
2023/10/12 05:21:58;;;;;;;;;9.00;9.00;;;;;24.80;100.00;100825.81;2109786;27;46914;-56
2023/10/12 05:22:59;;;;;;;;;10.00;9.00;;;;;24.79;100.00;100826.81;2112130;27;46780;-56
2023/10/12 05:23:59;;;;;;;;;10.25;10.00;;;;;24.81;100.00;100834.81;2112369;27;46449;-57
2023/10/12 05:24:59;;;;;;;;;9.00;7.25;;;;;24.81;100.00;100823.97;2113502;27;46865;-57
2023/10/12 05:28:19;;;;;;;;;9.25;8.25;;;;;24.78;100.00;100830.50;2108861;27;46411;-56
2023/10/12 05:30:27;;;;;;;;;11.00;9.40;;;;;24.78;100.00;100825.06;2113365;27;46523;-56
2023/10/12 05:31:28;;;;;;;;;9.60;9.60;;;;;24.77;100.00;100826.03;2110143;27;46587;-56
2023/10/12 05:32:37;;;;;;;;;10.20;8.80;;;;;24.77;100.00;100823.31;2104534;27;46819;-57
2023/10/12 05:33:38;;;;;;;;;10.80;10.40;;;;;24.77;100.00;100822.47;2109257;27;46290;-57
2023/10/12 05:35:52;;;;;;;;;8.50;8.50;;;;;24.77;100.00;100817.03;2112302;27;46165;-55
2023/10/12 05:36:53;;;;;;;;;9.00;9.00;;;;;24.75;100.00;100808.16;2113845;27;45916;-56
2023/10/12 05:37:56;;;;;;;;;7.25;6.25;;;;;24.76;100.00;100804.44;2109730;27;46507;-58
2023/10/12 05:39:11;;;;;;;;;10.00;9.40;;;;;24.76;100.00;100805.31;2113888;27;46909;-58